Observation data for Childress on 02/13/2018      Previous  Date  Next       Current Mesonet Observations  Soil Data  Daily Summary Page  Observations in Plain Language
KCXS 130600Z 12010KT M02/M08 A3032 RMK A01 T10221077  RH  066%=      5-min Rain = 0
KCXS 130605Z 12009KT M02/M08 A3032 RMK A01 T10211076  RH  066%=      5-min Rain = 0
KCXS 130610Z 12009KT M02/M08 A3032 RMK A01 T10221076  RH  066%=      5-min Rain = 0
KCXS 130615Z 12008KT M02/M08 A3033 RMK A01 T10241076  RH  067%=      5-min Rain = 0
KCXS 130620Z 12008KT M03/M08 A3033 RMK A01 T10251076  RH  068%=      5-min Rain = 0
KCXS 130625Z 12008KT M03/M08 A3033 RMK A01 T10271077  RH  068%=      5-min Rain = 0
KCXS 130630Z 12008KT M03/M08 A3033 RMK A01 T10281077  RH  069%=      5-min Rain = 0
KCXS 130635Z 12008KT M03/M08 A3033 RMK A01 T10291078  RH  069%=      5-min Rain = 0
KCXS 130640Z 12008KT M03/M08 A3033 RMK A01 T10311079  RH  070%=      5-min Rain = 0
KCXS 130645Z 12008KT M03/M08 A3033 RMK A01 T10331079  RH  071%=      5-min Rain = 0
KCXS 130650Z 12008KT M04/M08 A3033 RMK A01 T10361080  RH  071%=      5-min Rain = 0
KCXS 130655Z 13008KT M04/M08 A3033 RMK A01 T10371081  RH  071%=      5-min Rain = 0
KCXS 130700Z 13008KT M04/M08 A3033 RMK A01 T10381082  RH  071%=      5-min Rain = 0
KCXS 130705Z 12008KT M04/M08 A3033 RMK A01 T10381081  RH  072%=      5-min Rain = 0
KCXS 130710Z 12008KT M04/M08 A3033 RMK A01 T10381080  RH  073%=      5-min Rain = 0
KCXS 130715Z 12008KT M04/M08 A3033 RMK A01 T10381080  RH  073%=      5-min Rain = 0
KCXS 130720Z 12008KT M04/M08 A3032 RMK A01 T10381080  RH  072%=      5-min Rain = 0
KCXS 130725Z 12009KT M04/M08 A3032 RMK A01 T10401081  RH  073%=      5-min Rain = 0
KCXS 130730Z 12008KT M04/M08 A3032 RMK A01 T10411082  RH  073%=      5-min Rain = 0
KCXS 130735Z 12009KT M04/M08 A3032 RMK A01 T10401079  RH  074%=      5-min Rain = 0
KCXS 130740Z 13010KT M04/M08 A3032 RMK A01 T10381078  RH  074%=      5-min Rain = 0
KCXS 130745Z 13009KT M04/M08 A3032 RMK A01 T10361076  RH  074%=      5-min Rain = 0
KCXS 130750Z 13009KT M04/M08 A3032 RMK A01 T10361077  RH  073%=      5-min Rain = 0
KCXS 130755Z 13009KT M04/M08 A3032 RMK A01 T10391079  RH  074%=      5-min Rain = 0
KCXS 130800Z 13009KT M04/M08 A3032 RMK A01 T10401078  RH  075%=      5-min Rain = 0
KCXS 130805Z 13009KT M04/M08 A3031 RMK A01 T10401078  RH  075%=      5-min Rain = 0
KCXS 130810Z 13008KT M04/M08 A3031 RMK A01 T10411078  RH  075%=      5-min Rain = 0
KCXS 130815Z 12009KT M04/M08 A3031 RMK A01 T10411077  RH  076%=      5-min Rain = 0
KCXS 130820Z 12008KT M04/M08 A3032 RMK A01 T10411077  RH  076%=      5-min Rain = 0
KCXS 130825Z 12008KT M04/M08 A3032 RMK A01 T10411076  RH  076%=      5-min Rain = 0
KCXS 130830Z 13008KT M04/M08 A3032 RMK A01 T10411076  RH  077%=      5-min Rain = 0
KCXS 130835Z 13009KT M04/M07 A3032 RMK A01 T10401073  RH  078%=      5-min Rain = 0
KCXS 130840Z 14009KT M04/M07 A3032 RMK A01 T10371070  RH  078%=      5-min Rain = 0
KCXS 130845Z 14008KT M04/M07 A3032 RMK A01 T10361069  RH  078%=      5-min Rain = 0
KCXS 130850Z 15008KT M04/M07 A3032 RMK A01 T10371071  RH  077%=      5-min Rain = 0
KCXS 130855Z 15008KT M04/M07 A3032 RMK A01 T10391072  RH  078%=      5-min Rain = 0
KCXS 130900Z 15007KT M04/M07 A3032 RMK A01 T10411074  RH  078%=      5-min Rain = 0
KCXS 130905Z 15007KT M04/M08 A3032 RMK A01 T10431075  RH  079%=      5-min Rain = 0
KCXS 130910Z 14006KT M04/M07 A3032 RMK A01 T10441074  RH  079%=      5-min Rain = 0
KCXS 130915Z 14005KT M04/M07 A3032 RMK A01 T10441073  RH  080%=      5-min Rain = 0
KCXS 130920Z 13005KT M04/M07 A3032 RMK A01 T10421071  RH  080%=      5-min Rain = 0
KCXS 130925Z 13003KT M04/M07 A3032 RMK A01 T10421072  RH  080%=      5-min Rain = 0
KCXS 130930Z 13002KT M04/M07 A3032 RMK A01 T10411070  RH  080%=      5-min Rain = 0
KCXS 130935Z 13003KT M04/M07 A3032 RMK A01 T10411071  RH  080%=      5-min Rain = 0
KCXS 130940Z 13002KT M04/M07 A3032 RMK A01 T10411069  RH  080%=      5-min Rain = 0
KCXS 130945Z 13003KT M04/M07 A3032 RMK A01 T10391068  RH  080%=      5-min Rain = 0
KCXS 130950Z 13003KT M04/M06 A3032 RMK A01 T10361064  RH  081%=      5-min Rain = 0
KCXS 130955Z 13003KT M03/M06 A3032 RMK A01 T10321060  RH  081%=      5-min Rain = 0
KCXS 131000Z 13003KT M03/M06 A3032 RMK A01 T10301061  RH  079%=      5-min Rain = 0
KCXS 131005Z 13003KT M03/M06 A3032 RMK A01 T10301061  RH  079%=      5-min Rain = 0
KCXS 131010Z 12003KT M03/M06 A3031 RMK A01 T10301062  RH  079%=      5-min Rain = 0
KCXS 131015Z 10004KT M03/M06 A3031 RMK A01 T10331064  RH  079%=      5-min Rain = 0
KCXS 131020Z 09004KT M04/M07 A3031 RMK A01 T10351065  RH  080%=      5-min Rain = 0
KCXS 131025Z 08004KT M04/M07 A3031 RMK A01 T10381066  RH  081%=      5-min Rain = 0
KCXS 131030Z 08005KT M04/M07 A3031 RMK A01 T10391066  RH  081%=      5-min Rain = 0
KCXS 131035Z 07005KT M04/M07 A3031 RMK A01 T10401067  RH  081%=      5-min Rain = 0
KCXS 131040Z 07005KT M04/M07 A3031 RMK A01 T10411067  RH  082%=      5-min Rain = 0
KCXS 131045Z 07005KT M04/M07 A3031 RMK A01 T10411067  RH  082%=      5-min Rain = 0
KCXS 131050Z 07005KT M04/M07 A3031 RMK A01 T10431067  RH  083%=      5-min Rain = 0
KCXS 131055Z 06004KT M04/M07 A3032 RMK A01 T10431067  RH  083%=      5-min Rain = 0
KCXS 131100Z 04004KT M04/M07 A3032 RMK A01 T10431067  RH  084%=      5-min Rain = 0
KCXS 131105Z 04004KT M04/M07 A3032 RMK A01 T10441067  RH  084%=      5-min Rain = 0
KCXS 131110Z 04004KT M04/M07 A3033 RMK A01 T10441067  RH  084%=      5-min Rain = 0
KCXS 131115Z 04003KT M04/M07 A3033 RMK A01 T10431066  RH  084%=      5-min Rain = 0
KCXS 131120Z 01003KT M04/M07 A3033 RMK A01 T10421065  RH  084%=      5-min Rain = 0
KCXS 131125Z 35002KT M04/M07 A3033 RMK A01 T10421066  RH  083%=      5-min Rain = 0
KCXS 131130Z 34003KT M05/M07 A3034 RMK A01 T10451069  RH  083%=      5-min Rain = 0
KCXS 131135Z 33003KT M05/M07 A3034 RMK A01 T10491071  RH  084%=      5-min Rain = 0
KCXS 131140Z 33003KT M05/M07 A3034 RMK A01 T10501069  RH  086%=      5-min Rain = 0
KCXS 131145Z 34003KT M05/M07 A3034 RMK A01 T10471067  RH  086%=      5-min Rain = 0
KCXS 131150Z 34003KT M04/M07 A3034 RMK A01 T10441065  RH  085%=      5-min Rain = 0
KCXS 131155Z 35003KT M04/M06 A3034 RMK A01 T10411063  RH  084%=      5-min Rain = 0
KCXS 131200Z 00003KT M04/M06 A3034 RMK A01 T10391063  RH  083%=      5-min Rain = 0
KCXS 131205Z 00003KT M04/M07 A3034 RMK A01 T10401067  RH  082%=      5-min Rain = 0
KCXS 131210Z 03004KT M04/M07 A3034 RMK A01 T10431069  RH  082%=      5-min Rain = 0
KCXS 131215Z 03004KT M04/M07 A3034 RMK A01 T10421067  RH  083%=      5-min Rain = 0
KCXS 131220Z 03003KT M04/M06 A3034 RMK A01 T10391064  RH  083%=      5-min Rain = 0
KCXS 131225Z 05003KT M04/M06 A3035 RMK A01 T10381063  RH  082%=      5-min Rain = 0
KCXS 131230Z 07003KT M04/M07 A3035 RMK A01 T10381065  RH  082%=      5-min Rain = 0
KCXS 131235Z 08005KT M04/M07 A3034 RMK A01 T10401067  RH  082%=      5-min Rain = 0
KCXS 131240Z 08005KT M04/M07 A3034 RMK A01 T10421067  RH  083%=      5-min Rain = 0
KCXS 131245Z 09005KT M04/M07 A3034 RMK A01 T10421066  RH  083%=      5-min Rain = 0
KCXS 131250Z 09006KT M04/M07 A3034 RMK A01 T10441067  RH  083%=      5-min Rain = 0
KCXS 131255Z 09006KT M04/M07 A3034 RMK A01 T10441067  RH  084%=      5-min Rain = 0
KCXS 131300Z 10007KT M04/M07 A3034 RMK A01 T10441067  RH  084%=      5-min Rain = 0
KCXS 131305Z 10008KT M05/M07 A3034 RMK A01 T10451066  RH  085%=      5-min Rain = 0
KCXS 131310Z 11008KT M04/M06 A3033 RMK A01 T10441064  RH  086%=      5-min Rain = 0
KCXS 131315Z 11008KT M04/M06 A3033 RMK A01 T10431062  RH  087%=      5-min Rain = 0
KCXS 131320Z 10007KT M04/M06 A3034 RMK A01 T10411060  RH  087%=      5-min Rain = 0
KCXS 131325Z 10006KT M04/M06 A3034 RMK A01 T10411059  RH  087%=      5-min Rain = 0
KCXS 131330Z 11005KT M04/M06 A3034 RMK A01 T10411060  RH  087%=      5-min Rain = 0
KCXS 131335Z 10004KT M04/M06 A3034 RMK A01 T10411061  RH  087%=      5-min Rain = 0
KCXS 131340Z 09002KT M04/M06 A3034 RMK A01 T10411061  RH  087%=      5-min Rain = 0
KCXS 131345Z 10003KT M04/M06 A3034 RMK A01 T10411060  RH  087%=      5-min Rain = 0
KCXS 131350Z 11003KT M04/M06 A3035 RMK A01 T10391058  RH  087%=      5-min Rain = 0
KCXS 131355Z 11003KT M04/M06 A3035 RMK A01 T10371057  RH  086%=      5-min Rain = 0
KCXS 131400Z 11004KT M04/M06 A3035 RMK A01 T10361056  RH  086%=      5-min Rain = 0
KCXS 131405Z 12004KT M03/M05 A3035 RMK A01 T10341054  RH  086%=      5-min Rain = 0
KCXS 131410Z 13004KT M03/M05 A3036 RMK A01 T10321053  RH  085%=      5-min Rain = 0
KCXS 131415Z 14003KT M03/M05 A3036 RMK A01 T10281050  RH  085%=      5-min Rain = 0
KCXS 131420Z 14003KT M02/M05 A3036 RMK A01 T10241049  RH  083%=      5-min Rain = 0
KCXS 131425Z 13004KT M02/M05 A3036 RMK A01 T10221050  RH  082%=      5-min Rain = 0
KCXS 131430Z 13005KT M02/M05 A3036 RMK A01 T10211049  RH  081%=      5-min Rain = 0
KCXS 131435Z 13005KT M02/M05 A3036 RMK A01 T10171046  RH  081%=      5-min Rain = 0
KCXS 131440Z 13005KT M01/M05 A3037 RMK A01 T10141047  RH  079%=      5-min Rain = 0
KCXS 131445Z 13004KT M01/M05 A3037 RMK A01 T10141046  RH  079%=      5-min Rain = 0
KCXS 131450Z 13002KT M01/M05 A3037 RMK A01 T10131046  RH  079%=      5-min Rain = 0
KCXS 131455Z 14003KT M01/M05 A3038 RMK A01 T10111045  RH  078%=      5-min Rain = 0
KCXS 131500Z 14005KT M01/M04 A3037 RMK A01 T10101043  RH  078%=      5-min Rain = 0
KCXS 131505Z 14004KT M01/M04 A3037 RMK A01 T10071041  RH  078%=      5-min Rain = 0
KCXS 131510Z 14004KT M00/M04 A3037 RMK A01 T10041040  RH  077%=      5-min Rain = 0
KCXS 131515Z 15004KT M00/M04 A3037 RMK A01 T10021039  RH  077%=      5-min Rain = 0
KCXS 131520Z 15005KT 00/M04 A3037 RMK A01 T00011038  RH  076%=      5-min Rain = 0
KCXS 131525Z 16004KT 01/M04 A3037 RMK A01 T00061035  RH  074%=      5-min Rain = 0
KCXS 131530Z 18004KT 01/M04 A3037 RMK A01 T00071035  RH  074%=      5-min Rain = 0
KCXS 131535Z 17002KT 01/M03 A3036 RMK A01 T00111032  RH  073%=      5-min Rain = 0
KCXS 131540Z 19004KT 02/M03 A3037 RMK A01 T00151031  RH  071%=      5-min Rain = 0
KCXS 131545Z 19004KT 02/M03 A3036 RMK A01 T00181029  RH  071%=      5-min Rain = 0
KCXS 131550Z 20004KT 02/M03 A3036 RMK A01 T00191029  RH  071%=      5-min Rain = 0
KCXS 131555Z 21004KT 02/M03 A3036 RMK A01 T00211027  RH  071%=      5-min Rain = 0
KCXS 131600Z 20003KT 02/M03 A3037 RMK A01 T00231027  RH  070%=      5-min Rain = 0
KCXS 131605Z 14004KT 03/M03 A3037 RMK A01 T00251027  RH  069%=      5-min Rain = 0
KCXS 131610Z 14007KT 03/M03 A3038 RMK A01 T00261027  RH  068%=      5-min Rain = 0
KCXS 131615Z 13007KT 03/M03 A3038 RMK A01 T00251030  RH  067%=      5-min Rain = 0
KCXS 131620Z 12007KT 02/M03 A3038 RMK A01 T00211034  RH  067%=      5-min Rain = 0
KCXS 131625Z 14007KT 02/M03 A3039 RMK A01 T00191034  RH  068%=      5-min Rain = 0
KCXS 131630Z 14006KT 02/M03 A3039 RMK A01 T00211033  RH  068%=      5-min Rain = 0
KCXS 131635Z 15006KT 03/M03 A3039 RMK A01 T00251031  RH  067%=      5-min Rain = 0
KCXS 131640Z 14007KT 03/M03 A3039 RMK A01 T00291031  RH  065%=      5-min Rain = 0
KCXS 131645Z 14007KT 03/M03 A3039 RMK A01 T00311029  RH  065%=      5-min Rain = 0
KCXS 131650Z 16007KT 03/M03 A3039 RMK A01 T00301026  RH  067%=      5-min Rain = 0
KCXS 131655Z 16008KT 03/M02 A304 RMK A01 T00301024  RH  068%=      5-min Rain = 0
KCXS 131700Z 17007KT 03/M03 A304 RMK A01 T00311025  RH  067%=      5-min Rain = 0
KCXS 131705Z 18007KT 03/M03 A3039 RMK A01 T00311025  RH  067%=      5-min Rain = 0
KCXS 131710Z 17007KT 03/M02 A3039 RMK A01 T00321024  RH  067%=      5-min Rain = 0
KCXS 131715Z 15006KT 03/M03 A3039 RMK A01 T00331026  RH  066%=      5-min Rain = 0
KCXS 131720Z 16004KT 03/M03 A3038 RMK A01 T00311026  RH  067%=      5-min Rain = 0
KCXS 131725Z 15004KT 03/M03 A3038 RMK A01 T00311025  RH  067%=      5-min Rain = 0
KCXS 131730Z 15005KT 04/M02 A3038 RMK A01 T00361023  RH  066%=      5-min Rain = 0
KCXS 131735Z 16004KT 04/M02 A3038 RMK A01 T00381023  RH  065%=      5-min Rain = 0
KCXS 131740Z 17003KT 04/M02 A3038 RMK A01 T00401023  RH  064%=      5-min Rain = 0
KCXS 131745Z 16004KT 04/M02 A3038 RMK A01 T00421021  RH  064%=      5-min Rain = 0
KCXS 131750Z 21003KT 05/M02 A3038 RMK A01 T00451021  RH  063%=      5-min Rain = 0
KCXS 131755Z 19005KT 05/M02 A3037 RMK A01 T00461020  RH  063%=      5-min Rain = 0
KCXS 131800Z 18004KT 05/M02 A3037 RMK A01 T00481020  RH  062%=      5-min Rain = 0
KCXS 131805Z 18003KT 05/M02 A3036 RMK A01 T00491020  RH  062%=      5-min Rain = 0
KCXS 131810Z 17002G7KT 05/M02 A3036 RMK A01 T00511021  RH  060%=      5-min Rain = 0
KCXS 131815Z 16004KT 05/M02 A3035 RMK A01 T00531018  RH  061%=      5-min Rain = 0
KCXS 131820Z 18005KT 05/M02 A3035 RMK A01 T00531016  RH  062%=      5-min Rain = 0
KCXS 131825Z 19004KT 05/M02 A3036 RMK A01 T00521016  RH  062%=      5-min Rain = 0
KCXS 131830Z 18005KT 05/M02 A3035 RMK A01 T00521018  RH  061%=      5-min Rain = 0
KCXS 131835Z 17004KT 06/M02 A3035 RMK A01 T00551016  RH  061%=      5-min Rain = 0
KCXS 131840Z 18006KT 06/M02 A3035 RMK A01 T00591015  RH  060%=      5-min Rain = 0
KCXS 131845Z 20005KT 06/M02 A3035 RMK A01 T00611015  RH  059%=      5-min Rain = 0
KCXS 131850Z 20004KT 07/M01 A3034 RMK A01 T00661014  RH  057%=      5-min Rain = 0
KCXS 131855Z 16005KT 07/M01 A3033 RMK A01 T00681014  RH  056%=      5-min Rain = 0
KCXS 131900Z 16004KT 07/M01 A3033 RMK A01 T00721014  RH  055%=      5-min Rain = 0
KCXS 131905Z 18004KT 07/M01 A3032 RMK A01 T00721013  RH  056%=      5-min Rain = 0
KCXS 131910Z 19006KT 08/M01 A3032 RMK A01 T00751008  RH  056%=      5-min Rain = 0
KCXS 131915Z 19003KT 08/M01 A3031 RMK A01 T00791008  RH  055%=      5-min Rain = 0
KCXS 131920Z 19005KT 09/M00 A303 RMK A01 T00871001  RH  055%=      5-min Rain = 0
KCXS 131925Z 18005KT 09/00 A303 RMK A01 T00900001  RH  054%=      5-min Rain = 0
KCXS 131930Z 19005KT 10/01 A303 RMK A01 T00950007  RH  055%=      5-min Rain = 0
KCXS 131935Z 19006KT 10/01 A303 RMK A01 T00980011  RH  055%=      5-min Rain = 0
KCXS 131940Z 19007KT 10/02 A303 RMK A01 T01010015  RH  056%=      5-min Rain = 0
KCXS 131945Z 18007G12KT 10/01 A303 RMK A01 T01020014  RH  055%=      5-min Rain = 0
KCXS 131950Z 18010KT 10/02 A3029 RMK A01 T01040019  RH  057%=      5-min Rain = 0
KCXS 131955Z 18010KT 11/02 A3029 RMK A01 T01090020  RH  055%=      5-min Rain = 0
KCXS 132000Z 18010KT 11/02 A3028 RMK A01 T01070020  RH  056%=      5-min Rain = 0
KCXS 132005Z 17010KT 11/02 A3028 RMK A01 T01070019  RH  055%=      5-min Rain = 0
KCXS 132010Z 16009KT 11/02 A3028 RMK A01 T01070019  RH  055%=      5-min Rain = 0
KCXS 132015Z 17010KT 11/02 A3028 RMK A01 T01080019  RH  055%=      5-min Rain = 0
KCXS 132020Z 18010KT 11/02 A3028 RMK A01 T01100024  RH  056%=      5-min Rain = 0
KCXS 132025Z 19010KT 11/03 A3028 RMK A01 T01100026  RH  057%=      5-min Rain = 0
KCXS 132030Z 18012G17KT 12/03 A3027 RMK A01 T01150026  RH  055%=      5-min Rain = 0
KCXS 132035Z 19009G14KT 12/02 A3027 RMK A01 T01230022  RH  051%=      5-min Rain = 0
KCXS 132040Z 17009KT 12/02 A3027 RMK A01 T01190021  RH  052%=      5-min Rain = 0
KCXS 132045Z 19008G14KT 12/02 A3027 RMK A01 T01200023  RH  052%=      5-min Rain = 0
KCXS 132050Z 17011G16KT 13/02 A3027 RMK A01 T01250022  RH  050%=      5-min Rain = 0
KCXS 132055Z 18011G19KT 12/02 A3027 RMK A01 T01220021  RH  051%=      5-min Rain = 0
KCXS 132100Z 19009KT 12/02 A3026 RMK A01 T01200020  RH  051%=      5-min Rain = 0
KCXS 132105Z 17011G16KT 12/02 A3026 RMK A01 T01200019  RH  051%=      5-min Rain = 0
KCXS 132110Z 17008KT 12/02 A3026 RMK A01 T01180019  RH  051%=      5-min Rain = 0
KCXS 132115Z 18010G16KT 12/02 A3026 RMK A01 T01220019  RH  050%=      5-min Rain = 0
KCXS 132120Z 17009KT 12/02 A3026 RMK A01 T01230020  RH  050%=      5-min Rain = 0
KCXS 132125Z 18010KT 12/02 A3025 RMK A01 T01230021  RH  050%=      5-min Rain = 0
KCXS 132130Z 19007G13KT 12/02 A3026 RMK A01 T01220021  RH  051%=      5-min Rain = 0
KCXS 132135Z 17010G15KT 13/02 A3025 RMK A01 T01260022  RH  050%=      5-min Rain = 0
KCXS 132140Z 17009KT 13/02 A3026 RMK A01 T01300023  RH  049%=      5-min Rain = 0
KCXS 132145Z 17007G12KT 13/02 A3025 RMK A01 T01320020  RH  047%=      5-min Rain = 0
KCXS 132150Z 19009KT 13/02 A3025 RMK A01 T01330016  RH  046%=      5-min Rain = 0
KCXS 132155Z 18011KT 13/02 A3025 RMK A01 T01300015  RH  046%=      5-min Rain = 0
KCXS 132200Z 20011KT 13/01 A3025 RMK A01 T01280014  RH  046%=      5-min Rain = 0
KCXS 132205Z 20010G15KT 13/01 A3025 RMK A01 T01300013  RH  046%=      5-min Rain = 0
KCXS 132210Z 19011KT 13/01 A3025 RMK A01 T01270013  RH  046%=      5-min Rain = 0
KCXS 132215Z 19011KT 13/01 A3025 RMK A01 T01250013  RH  047%=      5-min Rain = 0
KCXS 132220Z 18011KT 12/01 A3025 RMK A01 T01230014  RH  048%=      5-min Rain = 0
KCXS 132225Z 17011KT 12/02 A3025 RMK A01 T01220016  RH  049%=      5-min Rain = 0
KCXS 132230Z 16011KT 12/02 A3025 RMK A01 T01220017  RH  049%=      5-min Rain = 0
KCXS 132235Z 17010KT 12/02 A3025 RMK A01 T01220017  RH  049%=      5-min Rain = 0
KCXS 132240Z 17010KT 12/02 A3025 RMK A01 T01240018  RH  049%=      5-min Rain = 0
KCXS 132245Z 17011KT 12/02 A3024 RMK A01 T01240018  RH  049%=      5-min Rain = 0
KCXS 132250Z 17010KT 12/02 A3024 RMK A01 T01230018  RH  050%=      5-min Rain = 0
KCXS 132255Z 17008KT 13/02 A3024 RMK A01 T01250019  RH  049%=      5-min Rain = 0
KCXS 132300Z 17010KT 13/02 A3023 RMK A01 T01250019  RH  049%=      5-min Rain = 0
KCXS 132305Z 18009KT 13/02 A3023 RMK A01 T01260019  RH  049%=      5-min Rain = 0
KCXS 132310Z 17009KT 13/02 A3023 RMK A01 T01290020  RH  048%=      5-min Rain = 0
KCXS 132315Z 16008KT 13/02 A3023 RMK A01 T01310020  RH  048%=      5-min Rain = 0
KCXS 132320Z 16008KT 13/02 A3023 RMK A01 T01320020  RH  047%=      5-min Rain = 0
KCXS 132325Z 18009KT 13/02 A3023 RMK A01 T01340021  RH  047%=      5-min Rain = 0
KCXS 132330Z 17010KT 13/02 A3023 RMK A01 T01310021  RH  048%=      5-min Rain = 0
KCXS 132335Z 18009KT 13/02 A3023 RMK A01 T01300022  RH  048%=      5-min Rain = 0
KCXS 132340Z 17010KT 13/02 A3023 RMK A01 T01310023  RH  049%=      5-min Rain = 0
KCXS 132345Z 17010KT 13/02 A3023 RMK A01 T01290024  RH  050%=      5-min Rain = 0
KCXS 132350Z 17010KT 13/02 A3023 RMK A01 T01270024  RH  050%=      5-min Rain = 0
KCXS 132355Z 17008KT 13/02 A3023 RMK A01 T01250024  RH  051%=      5-min Rain = 0
KCXS 140000Z 16007KT 12/02 A3023 RMK A01 T01220023  RH  052%=      5-min Rain = 0
KCXS 140005Z 16007KT 12/02 A3023 RMK A01 T01180023  RH  053%=      5-min Rain = 0
KCXS 140010Z 16008KT 12/02 A3024 RMK A01 T01150022  RH  054%=      5-min Rain = 0
KCXS 140015Z 16008KT 11/02 A3023 RMK A01 T01120022  RH  055%=      5-min Rain = 0
KCXS 140020Z 16008KT 11/02 A3023 RMK A01 T01100023  RH  056%=      5-min Rain = 0
KCXS 140025Z 16008KT 11/02 A3023 RMK A01 T01080022  RH  056%=      5-min Rain = 0
KCXS 140030Z 16008KT 11/02 A3023 RMK A01 T01050022  RH  057%=      5-min Rain = 0
KCXS 140035Z 15007KT 10/02 A3023 RMK A01 T01010020  RH  058%=      5-min Rain = 0
KCXS 140040Z 15007KT 10/02 A3024 RMK A01 T00970020  RH  060%=      5-min Rain = 0
KCXS 140045Z 15008KT 09/02 A3023 RMK A01 T00940020  RH  061%=      5-min Rain = 0
KCXS 140050Z 15008KT 09/02 A3023 RMK A01 T00920021  RH  062%=      5-min Rain = 0
KCXS 140055Z 15008KT 09/02 A3023 RMK A01 T00900020  RH  063%=      5-min Rain = 0
KCXS 140100Z 15008KT 09/02 A3023 RMK A01 T00870020  RH  063%=      5-min Rain = 0
KCXS 140105Z 15008KT 09/02 A3023 RMK A01 T00850020  RH  064%=      5-min Rain = 0
KCXS 140110Z 15008KT 08/02 A3023 RMK A01 T00840019  RH  065%=      5-min Rain = 0
KCXS 140115Z 15008KT 08/02 A3023 RMK A01 T00820019  RH  065%=      5-min Rain = 0
KCXS 140120Z 15008KT 08/02 A3023 RMK A01 T00800018  RH  066%=      5-min Rain = 0
KCXS 140125Z 15008KT 08/02 A3023 RMK A01 T00780018  RH  067%=      5-min Rain = 0
KCXS 140130Z 15008KT 08/02 A3023 RMK A01 T00760018  RH  067%=      5-min Rain = 0
KCXS 140135Z 15008KT 07/02 A3023 RMK A01 T00740018  RH  068%=      5-min Rain = 0
KCXS 140140Z 15008KT 07/02 A3023 RMK A01 T00740018  RH  069%=      5-min Rain = 0
KCXS 140145Z 15008KT 07/02 A3023 RMK A01 T00730019  RH  069%=      5-min Rain = 0
KCXS 140150Z 14008KT 07/02 A3024 RMK A01 T00720019  RH  070%=      5-min Rain = 0
KCXS 140155Z 14007KT 07/02 A3024 RMK A01 T00720019  RH  070%=      5-min Rain = 0
KCXS 140200Z 14007KT 07/02 A3024 RMK A01 T00690017  RH  070%=      5-min Rain = 0
KCXS 140205Z 14007KT 07/02 A3024 RMK A01 T00650015  RH  072%=      5-min Rain = 0
KCXS 140210Z 14007KT 06/02 A3024 RMK A01 T00640016  RH  073%=      5-min Rain = 0
KCXS 140215Z 14007KT 07/02 A3025 RMK A01 T00650017  RH  073%=      5-min Rain = 0
KCXS 140220Z 14008KT 07/02 A3025 RMK A01 T00670020  RH  073%=      5-min Rain = 0
KCXS 140225Z 14007KT 07/02 A3025 RMK A01 T00680020  RH  072%=      5-min Rain = 0
KCXS 140230Z 14007KT 07/02 A3025 RMK A01 T00670021  RH  073%=      5-min Rain = 0
KCXS 140235Z 14007KT 07/02 A3025 RMK A01 T00670020  RH  073%=      5-min Rain = 0
KCXS 140240Z 14007KT 06/01 A3025 RMK A01 T00600014  RH  073%=      5-min Rain = 0
KCXS 140245Z 13008KT 05/01 A3025 RMK A01 T00540012  RH  075%=      5-min Rain = 0
KCXS 140250Z 14009KT 06/02 A3025 RMK A01 T00550015  RH  077%=      5-min Rain = 0
KCXS 140255Z 13008KT 06/02 A3025 RMK A01 T00550016  RH  077%=      5-min Rain = 0
KCXS 140300Z 13009KT 05/01 A3025 RMK A01 T00520014  RH  077%=      5-min Rain = 0
KCXS 140305Z 13009KT 05/01 A3025 RMK A01 T00500012  RH  078%=      5-min Rain = 0
KCXS 140310Z 13009KT 05/01 A3025 RMK A01 T00480012  RH  079%=      5-min Rain = 0
KCXS 140315Z 13009KT 05/01 A3025 RMK A01 T00460011  RH  079%=      5-min Rain = 0
KCXS 140320Z 13010KT 04/01 A3025 RMK A01 T00430011  RH  081%=      5-min Rain = 0
KCXS 140325Z 13010KT 04/01 A3025 RMK A01 T00430013  RH  082%=      5-min Rain = 0
KCXS 140330Z 13009KT 04/01 A3025 RMK A01 T00410012  RH  082%=      5-min Rain = 0
KCXS 140335Z 13010KT 04/01 A3025 RMK A01 T00380011  RH  083%=      5-min Rain = 0
KCXS 140340Z 13010KT 04/01 A3025 RMK A01 T00380012  RH  085%=      5-min Rain = 0
KCXS 140345Z 13009KT 04/01 A3025 RMK A01 T00380014  RH  086%=      5-min Rain = 0
KCXS 140350Z 13009KT 04/02 A3025 RMK A01 T00380016  RH  087%=      5-min Rain = 0
KCXS 140355Z 13009KT 04/02 A3025 RMK A01 T00370016  RH  087%=      5-min Rain = 0
KCXS 140400Z 13009KT 04/01 A3025 RMK A01 T00350014  RH  087%=      5-min Rain = 0
KCXS 140405Z 13008KT 03/01 A3025 RMK A01 T00340014  RH  088%=      5-min Rain = 0
KCXS 140410Z 13009KT 03/01 A3025 RMK A01 T00320013  RH  089%=      5-min Rain = 0
KCXS 140415Z 13010KT 03/01 A3024 RMK A01 T00300012  RH  090%=      5-min Rain = 0
KCXS 140420Z 13010KT 03/01 A3024 RMK A01 T00280012  RH  090%=      5-min Rain = 0
KCXS 140425Z 13010KT 03/01 A3024 RMK A01 T00270012  RH  091%=      5-min Rain = 0
KCXS 140430Z 14010KT 03/02 A3024 RMK A01 T00320018  RH  092%=      5-min Rain = 0
KCXS 140435Z 14010KT 04/02 A3023 RMK A01 T00350021  RH  092%=      5-min Rain = 0
KCXS 140440Z 14010KT 04/02 A3023 RMK A01 T00360021  RH  092%=      5-min Rain = 0
KCXS 140445Z 14010KT 04/02 A3023 RMK A01 T00370022  RH  091%=      5-min Rain = 0
KCXS 140450Z 14009KT 04/02 A3023 RMK A01 T00370022  RH  091%=      5-min Rain = 0
KCXS 140455Z 14009KT 04/02 A3023 RMK A01 T00350020  RH  091%=      5-min Rain = 0
KCXS 140500Z 15010KT 03/02 A3023 RMK A01 T00340019  RH  092%=      5-min Rain = 0
KCXS 140505Z 15010KT 03/02 A3023 RMK A01 T00320018  RH  092%=      5-min Rain = 0
KCXS 140510Z 15010KT 03/02 A3022 RMK A01 T00320018  RH  092%=      5-min Rain = 0
KCXS 140515Z 15010KT 03/02 A3022 RMK A01 T00320018  RH  092%=      5-min Rain = 0
KCXS 140520Z 15009KT 03/02 A3022 RMK A01 T00320018  RH  092%=      5-min Rain = 0
KCXS 140525Z 15008KT 03/02 A3022 RMK A01 T00320018  RH  093%=      5-min Rain = 0
KCXS 140530Z 15007KT 03/02 A3022 RMK A01 T00320019  RH  093%=      5-min Rain = 0
KCXS 140535Z 15007KT 03/02 A3022 RMK A01 T00330020  RH  093%=      5-min Rain = 0
KCXS 140540Z 16009KT 03/02 A3022 RMK A01 T00320019  RH  093%=      5-min Rain = 0
KCXS 140545Z 16010KT 03/02 A3021 RMK A01 T00310018  RH  093%=      5-min Rain = 0
KCXS 140550Z 16009KT 03/02 A3021 RMK A01 T00310019  RH  093%=      5-min Rain = 0
KCXS 140555Z 16008KT 03/02 A3021 RMK A01 T00310020  RH  094%=      5-min Rain = 0

Page generated in 0.0121 seconds.